createdAt,value
2019-06-01T00:02:07.675Z,91.67
2019-06-01T00:04:40.937Z,92.92
2019-06-01T00:07:13.019Z,94.33
2019-06-01T00:09:45.192Z,91.22
2019-06-01T00:12:17.264Z,90.14
2019-06-01T00:14:50.796Z,89.84
2019-06-01T00:17:22.734Z,89.68
2019-06-01T00:19:54.757Z,89.32
2019-06-01T00:22:26.788Z,90.41
2019-06-01T00:24:58.723Z,92.16
2019-06-01T00:27:30.685Z,93.02
2019-06-01T00:30:02.905Z,93.37
2019-06-01T00:32:36.004Z,91.69
2019-06-01T00:35:08.272Z,92.28
2019-06-01T00:37:41.363Z,92.15
2019-06-01T00:40:14.664Z,91.32
2019-06-01T00:42:46.673Z,87.81
2019-06-01T00:45:18.663Z,89.74
2019-06-01T00:47:50.933Z,88.57
2019-06-01T00:50:23.051Z,87.52
2019-06-01T00:52:55.111Z,86.87
2019-06-01T00:55:27.065Z,86.63
2019-06-01T00:57:58.947Z,88.68
2019-06-01T01:00:43.274Z,87.87
2019-06-01T01:03:04.700Z,91.74
2019-06-01T01:05:36.694Z,91.94
2019-06-01T01:08:08.655Z,88.70
2019-06-01T01:10:40.725Z,88.03
2019-06-01T01:13:17.121Z,88.93
2019-06-01T01:16:25.016Z,88.78
2019-06-01T01:18:37.972Z,88.60
2019-06-01T01:21:10.138Z,88.04
2019-06-01T01:23:42.038Z,88.32
2019-06-01T01:26:14.013Z,90.00
2019-06-01T01:28:46.699Z,89.64
2019-06-01T01:31:18.705Z,89.17
2019-06-01T01:33:51.399Z,87.31
2019-06-01T01:36:23.559Z,87.19
2019-06-01T01:38:56.254Z,87.64
2019-06-01T01:41:28.392Z,88.30
2019-06-01T01:44:00.385Z,88.92
2019-06-01T01:46:32.540Z,88.33
2019-06-01T01:49:04.509Z,88.63
2019-06-01T01:51:36.583Z,90.25
2019-06-01T01:54:08.623Z,89.16
2019-06-01T01:56:40.677Z,88.57
2019-06-01T01:59:12.560Z,89.89
2019-06-01T02:01:44.610Z,87.38
2019-06-01T02:04:16.595Z,88.39
2019-06-01T02:06:48.508Z,88.72
2019-06-01T02:09:20.475Z,90.64
2019-06-01T02:11:53.447Z,92.28
2019-06-01T02:14:25.555Z,90.45
2019-06-01T02:16:58.126Z,89.70
2019-06-01T02:19:30.163Z,88.25
2019-06-01T02:22:03.534Z,87.35
2019-06-01T02:24:35.654Z,87.88
2019-06-01T02:27:08.653Z,88.26
2019-06-01T02:29:40.710Z,86.83
2019-06-01T02:32:12.692Z,87.97
2019-06-01T02:34:44.574Z,88.33
2019-06-01T02:37:17.719Z,88.07
2019-06-01T02:39:49.759Z,88.27
2019-06-01T02:42:21.759Z,87.99
2019-06-01T02:44:55.073Z,87.48
2019-06-01T02:47:27.182Z,87.09
2019-06-01T02:49:59.421Z,86.86
2019-06-01T02:52:31.643Z,87.94
2019-06-01T02:55:04.974Z,89.05
2019-06-01T02:57:38.229Z,89.66
2019-06-01T03:00:10.967Z,87.76
2019-06-01T03:02:43.908Z,86.22
2019-06-01T03:05:15.857Z,87.07
2019-06-01T03:07:50.328Z,86.39
2019-06-01T03:10:22.314Z,85.50
2019-06-01T03:12:56.367Z,87.08
2019-06-01T03:15:31.238Z,85.59
2019-06-01T03:18:05.669Z,89.59
2019-06-01T03:20:40.007Z,89.78
2019-06-01T03:23:13.972Z,89.66
2019-06-01T03:25:50.110Z,90.40
2019-06-01T03:28:25.093Z,90.68
2019-06-01T03:30:57.068Z,89.54
2019-06-01T03:33:29.131Z,87.69
2019-06-01T03:36:01.023Z,88.92
2019-06-01T03:38:33.372Z,89.86
2019-06-01T03:41:06.143Z,89.19
2019-06-01T03:43:38.204Z,89.55
2019-06-01T03:46:10.182Z,89.26
2019-06-01T03:48:42.155Z,87.22
2019-06-01T03:51:14.006Z,86.35
2019-06-01T03:53:45.912Z,83.53
2019-06-01T03:56:17.798Z,83.66
2019-06-01T03:58:50.950Z,86.34
2019-06-01T04:01:22.928Z,86.99
2019-06-01T04:03:54.999Z,86.01
2019-06-01T04:06:26.971Z,87.41
2019-06-01T04:08:58.809Z,86.92
2019-06-01T04:11:31.111Z,88.08
2019-06-01T04:14:03.845Z,86.21
2019-06-01T04:16:35.894Z,87.59
2019-06-01T04:19:08.077Z,88.17
2019-06-01T04:21:40.220Z,87.85
2019-06-01T04:24:12.483Z,86.37
2019-06-01T04:26:44.552Z,86.93
2019-06-01T04:29:17.254Z,87.18
2019-06-01T04:31:49.502Z,87.40
2019-06-01T04:34:21.570Z,87.27
2019-06-01T04:36:53.533Z,87.38
2019-06-01T04:39:25.565Z,87.43
2019-06-01T04:41:57.471Z,86.44
2019-06-01T04:44:29.398Z,85.48
2019-06-01T04:47:01.436Z,83.89
2019-06-01T04:49:33.523Z,81.67
2019-06-01T04:52:06.660Z,82.25
2019-06-01T04:54:38.739Z,82.40
2019-06-01T04:57:11.019Z,81.78
2019-06-01T04:59:43.281Z,81.73
2019-06-01T05:02:15.342Z,81.46
2019-06-01T05:04:47.354Z,79.83
2019-06-01T05:07:19.335Z,80.31
2019-06-01T05:09:51.386Z,81.21
2019-06-01T05:12:23.379Z,80.58
2019-06-01T05:14:55.375Z,78.74
2019-06-01T05:17:27.262Z,77.90
2019-06-01T05:19:59.181Z,78.46
2019-06-01T05:22:31.077Z,77.28
2019-06-01T05:25:03.140Z,77.82
2019-06-01T05:27:35.237Z,76.73
2019-06-01T05:30:09.476Z,73.35
2019-06-01T05:32:41.468Z,77.47
2019-06-01T05:35:13.818Z,76.24
2019-06-01T05:37:45.824Z,75.26
2019-06-01T05:40:19.754Z,76.91
2019-06-01T05:42:51.904Z,77.06
2019-06-01T05:45:23.939Z,77.19
2019-06-01T05:47:55.904Z,77.24
2019-06-01T05:50:27.908Z,75.35
2019-06-01T05:52:59.873Z,77.77
2019-06-01T05:55:31.901Z,77.97
2019-06-01T05:58:03.924Z,77.92
2019-06-01T06:00:42.030Z,76.56
2019-06-01T06:03:16.185Z,76.73
2019-06-01T06:05:47.829Z,76.64
2019-06-01T06:08:20.130Z,73.94
2019-06-01T06:10:52.231Z,75.64
2019-06-01T06:13:24.137Z,74.45
2019-06-01T06:15:56.107Z,75.09
2019-06-01T06:18:28.142Z,74.19
2019-06-01T06:21:00.342Z,74.79
2019-06-01T06:23:32.397Z,73.88
2019-06-01T06:26:04.403Z,73.92
2019-06-01T06:28:36.473Z,72.73
2019-06-01T06:31:08.529Z,71.95
2019-06-01T06:33:53.352Z,71.14
2019-06-01T06:36:15.277Z,69.96
2019-06-01T06:38:47.564Z,70.38
2019-06-01T06:41:20.328Z,68.96
2019-06-01T06:43:52.294Z,68.46
2019-06-01T06:46:24.890Z,71.91
2019-06-01T06:48:56.821Z,70.43
2019-06-01T06:51:28.889Z,70.09
2019-06-01T06:54:00.846Z,70.78
2019-06-01T06:56:32.835Z,70.57
2019-06-01T06:59:05.872Z,69.55
2019-06-01T07:01:37.958Z,70.50
2019-06-01T07:04:13.051Z,71.37
2019-06-01T07:06:43.785Z,72.17
2019-06-01T07:09:15.743Z,69.06
2019-06-01T07:11:47.800Z,67.28
2019-06-01T07:14:19.743Z,67.48
2019-06-01T07:16:52.408Z,66.32
2019-06-01T07:19:25.605Z,68.02
2019-06-01T07:21:57.642Z,67.21
2019-06-01T07:24:29.628Z,67.21
2019-06-01T07:27:01.605Z,69.28
2019-06-01T07:29:33.557Z,68.51
2019-06-01T07:32:05.706Z,69.30
2019-06-01T07:34:42.218Z,69.06
2019-06-01T07:37:11.690Z,69.40
2019-06-01T07:39:43.953Z,68.16
2019-06-01T07:42:15.957Z,68.37
2019-06-01T07:44:47.832Z,67.41
2019-06-01T07:47:20.778Z,67.14
2019-06-01T07:49:52.930Z,65.82
2019-06-01T07:52:26.119Z,67.08
2019-06-01T07:54:58.240Z,65.67
2019-06-01T07:57:31.684Z,64.92
2019-06-01T08:00:06.353Z,65.27
2019-06-01T08:02:38.479Z,65.40
2019-06-01T08:05:10.542Z,65.60
2019-06-01T08:07:42.518Z,63.81
2019-06-01T08:10:14.668Z,63.57
2019-06-01T08:12:46.645Z,62.89
2019-06-01T08:15:18.708Z,63.26
2019-06-01T08:17:52.231Z,63.42
2019-06-01T08:20:24.361Z,62.96
2019-06-01T08:22:56.283Z,62.07
2019-06-01T08:25:28.642Z,61.09
2019-06-01T08:28:00.766Z,61.62
2019-06-01T08:30:32.793Z,60.87
2019-06-01T08:33:04.908Z,60.62
2019-06-01T08:35:36.848Z,61.87
2019-06-01T08:38:08.826Z,61.63
2019-06-01T08:40:40.633Z,61.08
2019-06-01T08:43:13.927Z,59.75
2019-06-01T08:45:46.988Z,58.97
2019-06-01T08:48:19.314Z,57.53
2019-06-01T08:50:51.282Z,58.56
2019-06-01T08:53:23.817Z,58.25
2019-06-01T08:55:55.838Z,57.21
2019-06-01T08:58:28.195Z,55.45
2019-06-01T09:01:00.307Z,57.37
2019-06-01T09:03:33.798Z,56.79
2019-06-01T09:06:06.345Z,55.27
2019-06-01T09:08:38.407Z,56.03
2019-06-01T09:11:10.306Z,54.83
2019-06-01T09:13:42.376Z,53.98
2019-06-01T09:16:14.380Z,54.06
2019-06-01T09:18:46.463Z,54.83
2019-06-01T09:21:18.340Z,52.93
2019-06-01T09:23:50.407Z,54.48
2019-06-01T09:26:22.358Z,52.47
2019-06-01T09:28:54.285Z,51.46
2019-06-01T09:31:26.447Z,51.62
2019-06-01T09:33:58.546Z,50.30
2019-06-01T09:36:30.608Z,51.14
2019-06-01T09:39:02.567Z,48.58
2019-06-01T09:41:36.625Z,48.57
2019-06-01T09:44:09.054Z,49.23
2019-06-01T09:46:41.007Z,49.26
2019-06-01T09:49:13.086Z,49.64
2019-06-01T09:51:45.061Z,47.58
2019-06-01T09:54:17.110Z,48.99
2019-06-01T09:56:49.173Z,50.65
2019-06-01T09:59:21.168Z,51.07
2019-06-01T10:01:53.158Z,50.59
2019-06-01T10:04:25.249Z,52.44
2019-06-01T10:06:57.159Z,52.80
2019-06-01T10:09:29.502Z,52.41
2019-06-01T10:12:01.498Z,52.75
2019-06-01T10:14:34.184Z,54.33
2019-06-01T10:17:06.128Z,53.89
2019-06-01T10:19:38.913Z,53.69
2019-06-01T10:22:10.990Z,52.81
2019-06-01T10:24:43.160Z,52.38
2019-06-01T10:27:17.102Z,54.27
2019-06-01T10:29:49.151Z,53.33
2019-06-01T10:32:21.039Z,50.73
2019-06-01T10:34:53.287Z,52.51
2019-06-01T10:37:25.190Z,51.44
2019-06-01T10:39:58.442Z,54.17
2019-06-01T10:42:32.738Z,51.94
2019-06-01T10:47:29.513Z,51.96
2019-06-01T10:50:01.585Z,53.49
2019-06-01T10:52:34.486Z,54.06
2019-06-01T10:55:08.154Z,54.43
2019-06-01T10:57:40.636Z,54.84
2019-06-01T11:00:14.753Z,54.79
2019-06-01T11:02:47.060Z,55.08
2019-06-01T11:05:19.008Z,54.65
2019-06-01T11:07:51.050Z,54.84
2019-06-01T11:10:23.015Z,54.54
2019-06-01T11:12:54.991Z,53.17
2019-06-01T11:15:28.361Z,52.93
2019-06-01T11:18:00.593Z,54.24
2019-06-01T11:20:33.029Z,54.07
2019-06-01T11:23:05.121Z,52.55
2019-06-01T11:25:37.586Z,52.42
2019-06-01T11:28:09.630Z,52.24
2019-06-01T11:30:41.892Z,49.07
2019-06-01T11:33:13.794Z,48.04
2019-06-01T11:35:45.759Z,47.10
2019-06-01T11:38:20.180Z,48.81
2019-06-01T11:40:52.115Z,50.98
2019-06-01T11:43:24.109Z,48.99
2019-06-01T11:45:55.990Z,46.66
2019-06-01T11:48:27.906Z,46.96
2019-06-01T11:50:59.836Z,46.21
2019-06-01T11:53:31.666Z,46.39
2019-06-01T11:56:03.632Z,46.37
2019-06-01T11:58:35.683Z,47.49
2019-06-01T12:01:07.978Z,45.23
2019-06-01T12:03:40.118Z,46.72
2019-06-01T12:06:12.088Z,45.88
2019-06-01T12:08:44.135Z,46.26
2019-06-01T12:11:16.062Z,47.17
2019-06-01T12:13:47.911Z,43.88
2019-06-01T12:16:19.890Z,45.18
2019-06-01T12:18:51.939Z,46.53
2019-06-01T12:21:23.874Z,43.31
2019-06-01T12:23:55.885Z,41.93
2019-06-01T12:26:27.675Z,40.88
2019-06-01T12:29:00.737Z,41.21
2019-06-01T12:31:33.827Z,41.34
2019-06-01T12:34:05.891Z,44.28
2019-06-01T12:36:39.379Z,41.52
2019-06-01T12:39:16.350Z,40.79
2019-06-01T12:42:02.637Z,42.79
2019-06-01T12:44:34.953Z,43.09
2019-06-01T12:47:12.624Z,44.30
2019-06-01T12:49:46.208Z,44.91
2019-06-01T12:52:18.352Z,43.58
2019-06-01T12:54:50.254Z,41.88
2019-06-01T12:57:22.071Z,42.39
2019-06-01T12:59:53.997Z,41.75
2019-06-01T13:02:26.020Z,42.63
2019-06-01T13:04:57.941Z,40.91
2019-06-01T13:07:29.892Z,40.42
2019-06-01T13:10:03.141Z,40.78
2019-06-01T13:12:35.099Z,41.28
2019-06-01T13:15:09.696Z,40.99
2019-06-01T13:17:41.705Z,40.28
2019-06-01T13:20:13.817Z,39.56
2019-06-01T13:22:46.267Z,38.76
2019-06-01T13:25:18.262Z,39.96
2019-06-01T13:27:50.659Z,40.70
2019-06-01T13:30:22.781Z,39.67
2019-06-01T13:32:54.668Z,42.31
2019-06-01T13:35:26.590Z,39.46
2019-06-01T13:38:11.964Z,39.91
2019-06-01T13:40:33.580Z,40.29
2019-06-01T13:43:05.722Z,39.33
2019-06-01T13:45:37.634Z,40.35
2019-06-01T13:48:09.523Z,40.51
2019-06-01T13:50:41.595Z,40.69
2019-06-01T13:53:13.555Z,39.12
2019-06-01T13:55:46.055Z,41.01
2019-06-01T13:58:18.005Z,37.93
2019-06-01T14:00:51.555Z,39.06
2019-06-01T14:03:23.536Z,38.90
2019-06-01T14:05:55.824Z,39.83
2019-06-01T14:08:29.225Z,40.47
2019-06-01T14:11:01.510Z,40.07
2019-06-01T14:13:33.471Z,39.43
2019-06-01T14:16:05.601Z,38.75
2019-06-01T14:18:37.534Z,41.40
2019-06-01T14:21:09.449Z,40.71
2019-06-01T14:23:41.426Z,39.81
2019-06-01T14:26:13.396Z,41.85
2019-06-01T14:28:46.411Z,39.92
2019-06-01T14:31:18.308Z,40.67
2019-06-01T14:33:50.483Z,38.45
2019-06-01T14:36:24.136Z,38.45
2019-06-01T14:38:57.161Z,38.41
2019-06-01T14:41:29.857Z,37.99
2019-06-01T14:44:01.790Z,36.89
2019-06-01T14:46:33.691Z,36.93
2019-06-01T14:49:05.705Z,38.93
2019-06-01T14:51:37.713Z,39.16
2019-06-01T14:54:09.676Z,38.18
2019-06-01T14:56:41.522Z,36.43
2019-06-01T14:59:13.415Z,37.42
2019-06-01T15:01:45.417Z,37.76
2019-06-01T15:04:17.386Z,37.21
2019-06-01T15:06:50.198Z,37.90
2019-06-01T15:09:22.327Z,37.29
2019-06-01T15:11:54.490Z,36.00
2019-06-01T15:14:26.479Z,34.57
2019-06-01T15:16:58.384Z,35.49
2019-06-01T15:19:30.260Z,32.73
2019-06-01T15:22:03.521Z,34.58
2019-06-01T15:24:35.587Z,34.82
2019-06-01T15:27:10.531Z,35.24
2019-06-01T15:29:42.593Z,33.36
2019-06-01T15:32:16.990Z,34.06
2019-06-01T15:34:48.837Z,34.64
2019-06-01T15:37:23.491Z,34.92
2019-06-01T15:39:56.650Z,31.32
2019-06-01T15:42:28.801Z,30.91
2019-06-01T15:45:01.495Z,34.97
2019-06-01T15:47:36.173Z,34.85
2019-06-01T15:50:12.380Z,33.51
2019-06-01T15:52:44.330Z,31.19
2019-06-01T15:55:27.499Z,25.48
2019-06-01T15:58:01.275Z,21.71
2019-06-01T16:00:33.177Z,18.91
2019-06-01T16:03:07.299Z,17.76
2019-06-01T16:05:40.913Z,17.90
2019-06-01T16:08:12.945Z,15.81
2019-06-01T16:10:44.844Z,17.41
2019-06-01T16:13:16.931Z,18.20
2019-06-01T16:15:48.807Z,21.94
2019-06-01T16:18:20.781Z,22.02
2019-06-01T16:20:53.831Z,22.02
2019-06-01T16:23:26.569Z,22.52
2019-06-01T16:26:15.740Z,23.64
2019-06-01T16:28:43.545Z,24.33
2019-06-01T16:31:18.183Z,23.83
2019-06-01T16:33:59.108Z,23.68
2019-06-01T16:36:33.002Z,22.12
2019-06-01T16:39:10.458Z,18.95
2019-06-01T16:41:42.492Z,17.47
2019-06-01T16:44:30.051Z,17.42
2019-06-01T16:47:02.957Z,17.27
2019-06-01T16:49:35.512Z,16.91
2019-06-01T16:52:07.804Z,18.14
2019-06-01T16:54:39.793Z,15.73
2019-06-01T16:57:11.687Z,17.82
2019-06-01T16:59:43.738Z,21.40
2019-06-01T17:02:16.949Z,20.81
2019-06-01T17:04:53.077Z,19.18
2019-06-01T17:07:25.047Z,18.44
2019-06-01T17:09:57.133Z,18.17
2019-06-01T17:12:32.674Z,16.56
2019-06-01T17:15:07.160Z,16.12
2019-06-01T17:17:39.049Z,17.23
2019-06-01T17:20:40.454Z,16.33
2019-06-01T17:23:25.941Z,17.05
2019-06-01T17:25:46.436Z,16.46
2019-06-01T17:28:18.435Z,16.44
2019-06-01T17:30:50.554Z,18.40
2019-06-01T17:33:22.526Z,17.54
2019-06-01T17:35:55.445Z,19.48
2019-06-01T17:38:29.458Z,23.17
2019-06-01T17:41:02.193Z,23.23
2019-06-01T17:43:34.195Z,24.03
2019-06-01T17:46:07.272Z,24.77
2019-06-01T17:48:40.321Z,27.92
2019-06-01T17:51:12.786Z,28.78
2019-06-01T17:53:44.904Z,28.20
2019-06-01T17:56:18.501Z,29.49
2019-06-01T17:58:50.572Z,32.04
2019-06-01T18:01:22.631Z,34.33
2019-06-01T18:03:54.659Z,34.75
2019-06-01T18:06:26.625Z,36.13
2019-06-01T18:08:58.663Z,37.08
2019-06-01T18:11:30.641Z,35.91
2019-06-01T18:14:02.520Z,38.16
2019-06-01T18:16:34.426Z,40.77
2019-06-01T18:19:06.451Z,41.79
2019-06-01T18:21:38.701Z,42.66
2019-06-01T18:24:11.046Z,45.30
2019-06-01T18:26:43.197Z,46.53
2019-06-01T18:29:15.148Z,49.00
2019-06-01T18:31:46.991Z,50.21
2019-06-01T18:34:18.957Z,49.94
2019-06-01T18:36:50.874Z,51.26
2019-06-01T18:39:22.827Z,51.97
2019-06-01T18:41:54.931Z,52.79
2019-06-01T18:44:26.956Z,54.24
2019-06-01T18:49:50.715Z,55.32
2019-06-01T18:52:23.089Z,55.31
2019-06-01T18:54:55.156Z,55.66
2019-06-01T18:57:27.248Z,55.94
2019-06-01T18:59:59.294Z,56.54
2019-06-01T19:02:31.381Z,57.45
2019-06-01T19:05:04.855Z,56.33
2019-06-01T19:07:38.228Z,58.30
2019-06-01T19:10:14.122Z,59.28
2019-06-01T19:12:46.625Z,59.89
2019-06-01T19:15:27.588Z,60.69
2019-06-01T19:17:52.842Z,58.87
2019-06-01T19:20:24.819Z,60.99
2019-06-01T19:22:57.152Z,61.08
2019-06-01T19:25:29.343Z,62.04
2019-06-01T19:28:02.874Z,62.76
2019-06-01T19:30:42.096Z,64.12
2019-06-01T19:33:17.809Z,64.04
2019-06-01T19:35:49.971Z,65.75
2019-06-01T19:38:22.867Z,66.74
2019-06-01T19:40:54.818Z,66.76
2019-06-01T19:43:26.878Z,67.46
2019-06-01T19:45:58.819Z,66.05
2019-06-01T19:48:30.671Z,65.71
2019-06-01T19:51:02.690Z,68.79
2019-06-01T19:53:34.597Z,70.28
2019-06-01T19:56:06.500Z,69.91
2019-06-01T19:58:38.505Z,69.76
2019-06-01T20:01:10.389Z,70.54
2019-06-01T20:03:42.384Z,69.82
2019-06-01T20:06:14.750Z,71.18
2019-06-01T20:08:46.857Z,71.24
2019-06-01T20:11:19.373Z,72.19
2019-06-01T20:13:51.659Z,72.60
2019-06-01T20:16:23.921Z,72.52
2019-06-01T20:18:56.402Z,73.30
2019-06-01T20:21:28.803Z,70.53
2019-06-01T20:24:01.598Z,71.45
2019-06-01T20:26:42.023Z,72.71
2019-06-01T20:29:08.010Z,74.38
2019-06-01T20:31:40.051Z,74.13
2019-06-01T20:34:12.717Z,73.70
2019-06-01T20:36:45.643Z,74.87
2019-06-01T20:39:18.298Z,74.10
2019-06-01T20:41:50.410Z,75.11
2019-06-01T20:44:23.022Z,74.70
2019-06-01T20:46:55.170Z,75.55
2019-06-01T20:49:27.135Z,74.81
2019-06-01T20:51:59.025Z,75.42
2019-06-01T20:54:31.065Z,80.03
2019-06-01T20:57:02.967Z,79.02
2019-06-01T20:59:34.991Z,77.58
2019-06-01T21:02:07.157Z,79.92
2019-06-01T21:04:39.063Z,79.24
2019-06-01T21:07:11.112Z,78.13
2019-06-01T21:09:43.054Z,79.31
2019-06-01T21:12:16.592Z,78.16
2019-06-01T21:14:48.499Z,78.05
2019-06-01T21:17:20.732Z,78.44
2019-06-01T21:19:52.762Z,77.58
2019-06-01T21:22:24.981Z,78.58
2019-06-01T21:24:56.951Z,79.44
2019-06-01T21:27:28.782Z,79.90
2019-06-01T21:30:00.705Z,78.77
2019-06-01T21:32:32.731Z,79.01
2019-06-01T21:35:05.425Z,79.22
2019-06-01T21:37:37.457Z,80.00
2019-06-01T21:40:10.439Z,80.24
2019-06-01T21:43:00.384Z,81.22
2019-06-01T21:45:17.554Z,84.38
2019-06-01T21:47:49.615Z,81.43
2019-06-01T21:50:22.097Z,84.41
2019-06-01T21:52:54.154Z,82.67
2019-06-01T21:55:26.390Z,82.92
2019-06-01T21:57:58.312Z,84.71
2019-06-01T22:00:34.988Z,82.26
2019-06-01T22:03:10.447Z,81.53
2019-06-01T22:05:44.081Z,81.82
2019-06-01T22:11:19.371Z,82.08
2019-06-01T22:13:56.696Z,82.30
2019-06-01T22:16:32.629Z,83.48
2019-06-01T22:19:04.768Z,83.54
2019-06-01T22:21:51.342Z,82.15
2019-06-01T22:24:23.833Z,82.61
2019-06-01T22:30:02.282Z,82.50
2019-06-01T22:32:34.321Z,84.12
2019-06-01T22:35:09.198Z,84.60
2019-06-01T22:37:42.604Z,84.18
2019-06-01T22:40:14.761Z,83.67
2019-06-01T22:42:49.368Z,83.24
2019-06-01T22:45:22.091Z,83.27
2019-06-01T22:47:54.156Z,83.33
2019-06-01T22:50:27.001Z,83.58
2019-06-01T22:52:59.063Z,84.24
2019-06-01T22:55:32.337Z,84.08
2019-06-01T22:58:04.697Z,83.44
2019-06-01T23:00:36.715Z,84.49
2019-06-01T23:03:08.777Z,85.01
2019-06-01T23:05:40.753Z,84.58
2019-06-01T23:08:12.855Z,84.18
2019-06-01T23:10:44.805Z,84.30
2019-06-01T23:13:16.807Z,85.21
2019-06-01T23:15:49.669Z,85.17
2019-06-01T23:18:21.765Z,85.23
2019-06-01T23:20:53.769Z,85.64
2019-06-01T23:23:26.034Z,85.82
2019-06-01T23:25:58.191Z,85.51
2019-06-01T23:28:30.452Z,87.47
2019-06-01T23:31:02.510Z,86.40
2019-06-01T23:33:34.579Z,85.70
2019-06-01T23:36:06.613Z,85.91
2019-06-01T23:38:38.659Z,86.01
2019-06-01T23:41:10.545Z,85.01
2019-06-01T23:43:42.543Z,85.74
2019-06-01T23:46:14.689Z,85.22
2019-06-01T23:48:46.655Z,85.87
2019-06-01T23:51:18.925Z,85.28
2019-06-01T23:53:50.931Z,86.22
2019-06-01T23:56:23.630Z,86.37
2019-06-01T23:58:55.635Z,86.46
